Terminal Aerodrome Forecast
Issued by NWS Rapid City, SD

Current Version | Previous Version | Text Only | Print | Product List | Glossary On
Versions: 1 2 3 4 5 6 7 8 9 10 11 12 13 14
000
FTUS43 KUNR 051326 AAA
TAFRAP
TAF AMD
KRAP 051326Z 0513/0612 15007KT P6SM SCT060
     FM051500 17013KT P6SM OVC020
     FM051900 16015G25KT P6SM BKN040
     FM060100 14011KT P6SM -SHRA OVC025=

USA.gov is the U.S. government's official web portal to all federal, state and local government web resources and services.